createdAt,value
2022-09-17T00:00:38.302Z,574.86
2022-09-17T00:01:34.176Z,581.88
2022-09-17T00:02:29.379Z,599.67
2022-09-17T00:03:25.285Z,618.58
2022-09-17T00:04:20.249Z,619.73
2022-09-17T00:05:15.597Z,607.32
2022-09-17T00:06:11.294Z,618.58
2022-09-17T00:07:06.450Z,624.38
2022-09-17T00:08:01.730Z,627.90
2022-09-17T00:08:58.135Z,627.90
2022-09-17T00:09:53.447Z,641.19
2022-09-17T00:10:49.299Z,647.41
2022-09-17T00:11:44.435Z,632.07
2022-09-17T00:12:39.596Z,612.90
2022-09-17T00:13:35.349Z,607.87
2022-09-17T00:14:30.522Z,606.76
2022-09-17T00:15:25.774Z,605.66
2022-09-17T00:16:21.000Z,606.76
2022-09-17T00:17:16.122Z,606.21
2022-09-17T00:18:11.299Z,605.66
2022-09-17T00:19:06.286Z,599.13
2022-09-17T00:20:01.319Z,596.45
2022-09-17T00:20:56.390Z,590.64
2022-09-17T00:21:51.412Z,594.33
2022-09-17T00:22:51.042Z,614.03
2022-09-17T00:23:46.253Z,622.05
2022-09-17T00:24:41.760Z,616.87
2022-09-17T00:25:37.361Z,617.44
2022-09-17T00:26:32.660Z,614.59
2022-09-17T00:27:27.921Z,607.32
2022-09-17T00:28:24.320Z,602.92
2022-09-17T00:29:19.638Z,603.47
2022-09-17T00:30:15.370Z,608.42
2022-09-17T00:31:10.654Z,615.16
2022-09-17T00:32:05.919Z,626.13
2022-09-17T00:33:01.663Z,627.90
2022-09-17T00:33:56.980Z,637.51
2022-09-17T00:34:52.706Z,649.93
2022-09-17T00:35:47.988Z,660.23
2022-09-17T00:36:43.416Z,668.84
2022-09-17T00:37:39.160Z,670.86
2022-09-17T00:38:34.346Z,687.46
2022-09-17T00:39:29.511Z,694.62
2022-09-17T00:40:25.815Z,709.40
2022-09-17T00:41:20.995Z,707.14
2022-09-17T00:42:16.862Z,708.64
2022-09-17T00:43:12.131Z,697.52
2022-09-17T00:44:07.316Z,698.99
2022-09-17T00:45:03.158Z,711.67
2022-09-17T00:45:58.333Z,720.12
2022-09-17T00:46:54.231Z,706.39
2022-09-17T00:47:49.501Z,696.07
2022-09-17T00:48:44.685Z,692.45
2022-09-17T00:49:40.535Z,692.45
2022-09-17T00:50:35.710Z,701.19
2022-09-17T00:51:30.842Z,717.03
2022-09-17T00:52:27.271Z,720.12
2022-09-17T00:53:22.441Z,699.72
2022-09-17T00:54:18.285Z,681.14
2022-09-17T00:55:13.444Z,684.63
2022-09-17T00:56:08.609Z,706.39
2022-09-17T00:57:04.469Z,707.89
2022-09-17T00:57:59.785Z,706.39
2022-09-17T00:58:55.755Z,718.57
2022-09-17T00:59:50.907Z,731.18
2022-09-17T01:00:46.289Z,744.23
2022-09-17T01:01:42.060Z,740.93
2022-09-17T01:02:37.226Z,717.80
2022-09-17T01:03:32.630Z,693.90
2022-09-17T01:04:28.642Z,702.67
2022-09-17T01:05:23.914Z,713.95
2022-09-17T01:06:19.140Z,703.41
2022-09-17T01:07:14.983Z,688.88
2022-09-17T01:08:10.276Z,682.53
2022-09-17T01:09:06.150Z,696.07
2022-09-17T01:10:01.303Z,704.15
2022-09-17T01:10:56.763Z,722.46
2022-09-17T01:11:52.221Z,731.18
2022-09-17T01:12:47.522Z,737.65
2022-09-17T01:13:42.685Z,746.64
2022-09-17T01:14:39.210Z,750.84
2022-09-17T01:15:34.404Z,746.73
2022-09-17T01:16:30.290Z,752.11
2022-09-17T01:17:25.417Z,742.58
2022-09-17T01:18:20.622Z,736.02
2022-09-17T01:19:16.350Z,741.75
2022-09-17T01:20:11.581Z,736.02
2022-09-17T01:21:06.721Z,730.38
2022-09-17T01:22:01.880Z,717.03
2022-09-17T01:22:57.051Z,702.67
2022-09-17T01:23:52.070Z,685.34
2022-09-17T01:24:47.104Z,686.75
2022-09-17T01:25:42.156Z,693.90
2022-09-17T01:26:37.231Z,698.99
2022-09-17T01:27:32.228Z,688.88
2022-09-17T01:28:27.240Z,698.26
2022-09-17T01:29:22.296Z,696.79
2022-09-17T01:30:17.367Z,710.91
2022-09-17T01:31:12.352Z,717.80
2022-09-17T01:32:07.402Z,713.19
2022-09-17T01:33:02.418Z,680.44
2022-09-17T01:33:57.436Z,686.75
2022-09-17T01:34:52.471Z,695.34
2022-09-17T01:35:47.484Z,707.89
2022-09-17T01:36:42.528Z,705.64
2022-09-17T01:37:37.685Z,710.91
2022-09-17T01:38:33.534Z,710.91
2022-09-17T01:39:28.595Z,718.57
2022-09-17T01:40:23.788Z,727.98
2022-09-17T01:41:18.952Z,724.03
2022-09-17T01:42:14.261Z,721.68
2022-09-17T01:43:09.395Z,707.89
2022-09-17T01:44:05.800Z,704.90
2022-09-17T01:45:01.244Z,706.39
2022-09-17T01:45:56.265Z,703.41
2022-09-17T01:46:51.507Z,707.14
2022-09-17T01:47:46.649Z,723.25
2022-09-17T01:48:42.077Z,717.80
2022-09-17T01:49:37.370Z,703.41
2022-09-17T01:50:32.366Z,697.52
2022-09-17T01:51:27.524Z,701.93
2022-09-17T01:52:22.809Z,709.40
2022-09-17T01:53:18.061Z,704.90
2022-09-17T01:54:13.219Z,707.89
2022-09-17T01:55:08.517Z,689.59
2022-09-17T01:56:03.657Z,691.74
2022-09-17T01:56:58.915Z,705.64
2022-09-17T01:57:54.181Z,705.64
2022-09-17T01:58:49.367Z,710.91
2022-09-17T01:59:44.632Z,707.14
2022-09-17T02:00:39.946Z,698.26
2022-09-17T02:01:35.056Z,689.59
2022-09-17T02:02:30.243Z,683.23
2022-09-17T02:03:25.385Z,670.18
2022-09-17T02:04:20.662Z,696.07
2022-09-17T02:05:16.136Z,700.46
2022-09-17T02:06:11.242Z,686.75
2022-09-17T02:07:06.357Z,679.75
2022-09-17T02:08:01.512Z,685.34
2022-09-17T02:08:56.945Z,683.93
2022-09-17T02:09:51.942Z,684.63
2022-09-17T02:10:46.986Z,703.41
2022-09-17T02:11:42.016Z,696.79
2022-09-17T02:12:37.151Z,693.17
2022-09-17T02:13:32.360Z,697.52
2022-09-17T02:14:27.227Z,693.90
2022-09-17T02:15:22.261Z,686.75
2022-09-17T02:16:17.295Z,683.23
2022-09-17T02:17:12.294Z,664.18
2022-09-17T02:18:07.315Z,666.17
2022-09-17T02:19:02.783Z,690.30
2022-09-17T02:19:57.391Z,713.19
2022-09-17T02:20:52.517Z,726.40
2022-09-17T02:21:47.679Z,733.59
2022-09-17T02:22:42.702Z,747.48
2022-09-17T02:23:37.846Z,745.90
2022-09-17T02:24:32.998Z,752.11
2022-09-17T02:25:27.996Z,751.69
2022-09-17T02:26:23.127Z,736.83
2022-09-17T02:27:18.852Z,737.65
2022-09-17T02:28:14.138Z,724.82
2022-09-17T02:29:09.270Z,717.03
2022-09-17T02:30:04.426Z,723.25
2022-09-17T02:30:59.788Z,724.03
2022-09-17T02:31:55.086Z,717.03
2022-09-17T02:32:50.104Z,683.93
2022-09-17T02:33:45.373Z,664.18
2022-09-17T02:34:40.570Z,651.84
2022-09-17T02:35:36.548Z,648.67
2022-09-17T02:36:31.725Z,652.48
2022-09-17T02:37:27.586Z,659.58
2022-09-17T02:38:22.875Z,665.50
2022-09-17T02:39:18.163Z,656.98
2022-09-17T02:40:13.956Z,650.57
2022-09-17T02:41:09.120Z,652.48
2022-09-17T02:42:04.276Z,651.20
2022-09-17T02:43:00.784Z,649.30
2022-09-17T02:43:55.991Z,660.89
2022-09-17T02:44:51.719Z,674.25
2022-09-17T02:45:46.978Z,693.90
2022-09-17T02:46:42.254Z,688.17
2022-09-17T02:47:37.992Z,702.67
2022-09-17T02:48:33.391Z,704.90
2022-09-17T02:49:28.982Z,717.80
2022-09-17T02:50:24.124Z,731.98
2022-09-17T02:51:19.446Z,748.32
2022-09-17T02:52:15.298Z,750.42
2022-09-17T02:53:10.486Z,745.90
2022-09-17T02:54:05.768Z,741.75
2022-09-17T02:55:02.153Z,746.73
2022-09-17T02:55:57.449Z,726.40
2022-09-17T02:56:53.287Z,726.40
2022-09-17T02:57:48.434Z,739.28
2022-09-17T02:58:43.599Z,728.78
2022-09-17T02:59:39.494Z,704.15
2022-09-17T03:00:34.668Z,689.59
2022-09-17T03:01:30.630Z,679.75
2022-09-17T03:02:25.797Z,688.88
2022-09-17T03:03:21.086Z,696.79
2022-09-17T03:04:16.984Z,690.30
2022-09-17T03:05:12.141Z,670.86
2022-09-17T03:06:07.418Z,667.50
2022-09-17T03:07:03.819Z,681.83
2022-09-17T03:07:59.130Z,690.30
2022-09-17T03:08:54.989Z,696.07
2022-09-17T03:09:50.281Z,693.90
2022-09-17T03:10:45.577Z,697.52
2022-09-17T03:11:41.341Z,709.40
2022-09-17T03:12:36.510Z,696.07
2022-09-17T03:13:32.378Z,715.49
2022-09-17T03:14:27.533Z,724.03
2022-09-17T03:15:22.836Z,724.82
2022-09-17T03:16:18.631Z,730.38
2022-09-17T03:17:13.807Z,744.23
2022-09-17T03:18:08.972Z,741.75
2022-09-17T03:19:05.508Z,742.58
2022-09-17T03:20:00.707Z,748.32
2022-09-17T03:20:56.570Z,746.64
2022-09-17T03:21:51.701Z,748.32
2022-09-17T03:22:46.906Z,734.40
2022-09-17T03:23:42.606Z,714.72
2022-09-17T03:24:37.947Z,686.75
2022-09-17T03:25:33.627Z,684.63
2022-09-17T03:26:28.919Z,696.07
2022-09-17T03:27:24.094Z,711.67
2022-09-17T03:28:19.961Z,711.67
2022-09-17T03:29:15.154Z,722.46
2022-09-17T03:30:10.298Z,727.98
2022-09-17T03:31:06.787Z,732.78
2022-09-17T03:32:01.985Z,736.02
2022-09-17T03:32:57.831Z,706.39
2022-09-17T03:33:53.012Z,683.23
2022-09-17T03:34:48.156Z,691.74
2022-09-17T03:35:43.315Z,708.64
2022-09-17T03:36:38.622Z,729.58
2022-09-17T03:37:34.481Z,739.28
2022-09-17T03:38:29.698Z,743.40
2022-09-17T03:39:24.822Z,736.02
2022-09-17T03:40:21.313Z,732.78
2022-09-17T03:41:16.525Z,746.23
2022-09-17T03:42:12.380Z,755.52
2022-09-17T03:43:07.540Z,763.29
2022-09-17T03:44:02.859Z,757.23
2022-09-17T03:44:58.504Z,750.84
2022-09-17T03:45:53.807Z,744.23
2022-09-17T03:46:49.831Z,746.73
2022-09-17T03:47:44.857Z,742.58
2022-09-17T03:48:40.318Z,740.10
2022-09-17T03:49:36.058Z,746.73
2022-09-17T03:50:31.336Z,762.86
2022-09-17T03:51:26.731Z,770.34
2022-09-17T03:52:21.858Z,759.82
2022-09-17T03:53:16.983Z,772.57
2022-09-17T03:54:12.034Z,773.02
2022-09-17T03:55:07.060Z,780.24
2022-09-17T03:56:05.603Z,773.47
2022-09-17T03:57:00.773Z,745.90
2022-09-17T03:57:56.062Z,729.58
2022-09-17T03:58:51.280Z,724.82
2022-09-17T03:59:46.300Z,742.58
2022-09-17T04:00:41.303Z,739.28
2022-09-17T04:01:36.429Z,741.75
2022-09-17T04:02:31.425Z,747.06
2022-09-17T04:03:26.429Z,732.78
2022-09-17T04:04:21.588Z,719.34
2022-09-17T04:05:16.639Z,713.19
2022-09-17T04:06:11.685Z,700.46
2022-09-17T04:07:06.791Z,685.34
2022-09-17T04:08:01.850Z,674.93
2022-09-17T04:08:57.018Z,676.99
2022-09-17T04:09:51.891Z,681.14
2022-09-17T04:10:46.956Z,671.53
2022-09-17T04:11:41.944Z,663.52
2022-09-17T04:12:37.010Z,668.17
2022-09-17T04:13:32.033Z,676.30
2022-09-17T04:14:27.051Z,676.30
2022-09-17T04:15:22.095Z,690.30
2022-09-17T04:16:17.173Z,676.99
2022-09-17T04:17:12.124Z,656.33
2022-09-17T04:18:07.139Z,641.19
2022-09-17T04:19:02.153Z,643.66
2022-09-17T04:19:57.235Z,643.66
2022-09-17T04:20:52.235Z,648.67
2022-09-17T04:21:47.244Z,648.04
2022-09-17T04:22:42.285Z,647.41
2022-09-17T04:23:37.314Z,646.78
2022-09-17T04:24:32.576Z,639.96
2022-09-17T04:25:27.732Z,648.67
2022-09-17T04:26:23.030Z,657.63
2022-09-17T04:27:18.172Z,640.57
2022-09-17T04:28:13.459Z,638.73
2022-09-17T04:29:08.586Z,640.57
2022-09-17T04:30:03.771Z,639.96
2022-09-17T04:30:59.090Z,641.19
2022-09-17T04:31:54.389Z,649.93
2022-09-17T04:32:49.466Z,656.33
2022-09-17T04:33:44.613Z,641.80
2022-09-17T04:34:39.789Z,644.28
2022-09-17T04:35:34.925Z,648.04
2022-09-17T04:36:30.352Z,661.54
2022-09-17T04:37:25.359Z,662.86
2022-09-17T04:38:20.638Z,673.57
2022-09-17T04:39:15.722Z,672.89
2022-09-17T04:40:11.242Z,666.17
2022-09-17T04:41:06.296Z,582.39
2022-09-17T04:42:01.529Z,576.84
2022-09-17T04:42:56.748Z,587.00
2022-09-17T04:43:51.977Z,597.52
2022-09-17T04:44:47.222Z,588.04
2022-09-17T04:45:42.479Z,585.46
2022-09-17T04:46:37.724Z,589.08
2022-09-17T04:47:32.867Z,591.16
2022-09-17T04:48:28.204Z,601.29
2022-09-17T04:49:23.257Z,601.84
2022-09-17T04:50:18.380Z,604.56
2022-09-17T04:51:13.512Z,609.54
2022-09-17T04:52:08.795Z,613.46
2022-09-17T04:53:04.336Z,615.16
2022-09-17T04:53:59.324Z,614.03
2022-09-17T04:54:54.573Z,614.59
2022-09-17T04:55:49.733Z,622.63
2022-09-17T04:56:45.029Z,616.30
2022-09-17T04:57:40.231Z,608.98
2022-09-17T04:58:38.012Z,602.38
2022-09-17T04:59:33.082Z,596.45
2022-09-17T05:00:28.270Z,596.45
2022-09-17T05:01:23.511Z,607.32
2022-09-17T05:02:18.921Z,602.38
2022-09-17T05:03:14.151Z,602.92
2022-09-17T05:04:09.144Z,602.92
2022-09-17T05:05:04.246Z,612.34
2022-09-17T05:05:59.309Z,622.05
2022-09-17T05:06:54.418Z,623.79
2022-09-17T05:07:49.538Z,624.38
2022-09-17T05:08:44.534Z,620.89
2022-09-17T05:09:39.618Z,624.96
2022-09-17T05:10:34.611Z,622.63
2022-09-17T05:11:29.854Z,631.47
2022-09-17T05:12:24.964Z,632.67
2022-09-17T05:13:20.121Z,627.90
2022-09-17T05:14:15.087Z,614.59
2022-09-17T05:15:11.565Z,594.86
2022-09-17T05:16:06.672Z,595.39
2022-09-17T05:17:01.613Z,605.11
2022-09-17T05:17:56.876Z,616.87
2022-09-17T05:18:51.916Z,616.30
2022-09-17T05:19:46.933Z,622.05
2022-09-17T05:20:41.997Z,621.47
2022-09-17T05:21:37.012Z,619.73
2022-09-17T05:22:32.129Z,620.31
2022-09-17T05:23:27.316Z,622.63
2022-09-17T05:24:22.288Z,621.47
2022-09-17T05:25:17.469Z,616.87
2022-09-17T05:26:12.503Z,591.16
2022-09-17T05:27:07.539Z,592.21
2022-09-17T05:28:02.586Z,595.92
2022-09-17T05:28:57.822Z,580.86
2022-09-17T05:29:52.609Z,563.68
2022-09-17T05:30:47.703Z,563.20
2022-09-17T05:31:42.856Z,570.92
2022-09-17T05:32:37.824Z,565.11
2022-09-17T05:33:32.957Z,577.34
2022-09-17T05:34:28.045Z,588.55
2022-09-17T05:35:23.067Z,581.37
2022-09-17T05:36:18.125Z,589.60
2022-09-17T05:37:13.136Z,598.59
2022-09-17T05:38:08.303Z,593.27
2022-09-17T05:39:03.505Z,604.02
2022-09-17T05:39:58.868Z,598.06
2022-09-17T05:40:54.167Z,596.45
2022-09-17T05:41:49.315Z,592.21
2022-09-17T05:42:44.601Z,592.74
2022-09-17T05:43:39.786Z,588.55
2022-09-17T05:44:34.829Z,599.13
2022-09-17T05:45:29.889Z,604.56
2022-09-17T05:46:24.912Z,604.56
2022-09-17T05:47:19.950Z,606.76
2022-09-17T05:48:15.001Z,598.59
2022-09-17T05:49:10.061Z,579.85
2022-09-17T05:50:05.131Z,579.35
2022-09-17T05:51:00.370Z,589.08
2022-09-17T05:51:55.505Z,590.64
2022-09-17T05:52:50.603Z,593.27
2022-09-17T05:53:45.691Z,588.04
2022-09-17T05:54:40.739Z,577.84
2022-09-17T05:55:35.835Z,573.37
2022-09-17T05:56:30.862Z,583.92
2022-09-17T05:57:26.101Z,579.35
2022-09-17T05:58:21.118Z,563.20
2022-09-17T05:59:16.199Z,568.97
2022-09-17T06:00:11.252Z,583.92
2022-09-17T06:01:07.086Z,586.48
2022-09-17T06:03:29.942Z,565.11
2022-09-17T06:04:25.109Z,567.52
2022-09-17T06:05:20.431Z,569.94
2022-09-17T06:06:15.758Z,570.43
2022-09-17T06:07:11.287Z,547.48
2022-09-17T06:08:06.551Z,556.62
2022-09-17T06:09:01.960Z,551.56
2022-09-17T06:09:57.298Z,557.09
2022-09-17T06:10:52.671Z,566.55
2022-09-17T06:11:48.055Z,559.89
2022-09-17T06:12:43.449Z,562.25
2022-09-17T06:13:38.952Z,569.94
2022-09-17T06:14:34.268Z,570.43
2022-09-17T06:15:29.704Z,568.48
2022-09-17T06:16:25.227Z,557.55
2022-09-17T06:17:22.286Z,518.13
2022-09-17T06:18:16.000Z,507.48
2022-09-17T06:19:11.474Z,501.00
2022-09-17T06:20:07.014Z,505.94
2022-09-17T06:21:02.418Z,510.98
2022-09-17T06:21:57.855Z,520.15
2022-09-17T06:22:53.406Z,526.31
2022-09-17T06:23:48.793Z,533.47
2022-09-17T06:24:44.243Z,534.32
2022-09-17T06:25:39.651Z,544.35
2022-09-17T06:26:35.091Z,549.29
2022-09-17T06:27:30.651Z,557.09
2022-09-17T06:28:26.080Z,550.19
2022-09-17T06:29:21.490Z,557.09
2022-09-17T06:30:16.922Z,550.65
2022-09-17T06:31:12.481Z,553.85
2022-09-17T06:32:07.968Z,554.77
2022-09-17T06:33:03.400Z,560.36
2022-09-17T06:33:58.816Z,558.96
2022-09-17T06:34:54.362Z,555.69
2022-09-17T06:35:49.702Z,552.93
2022-09-17T06:36:45.107Z,547.48
2022-09-17T06:37:40.578Z,543.02
2022-09-17T06:38:35.979Z,554.31
2022-09-17T06:39:31.493Z,564.16
2022-09-17T06:40:26.928Z,579.35
2022-09-17T06:41:22.246Z,579.85
2022-09-17T06:42:17.645Z,586.48
2022-09-17T06:43:13.233Z,589.60
2022-09-17T06:44:08.663Z,579.85
2022-09-17T06:45:08.545Z,571.41
2022-09-17T06:46:00.677Z,567.03
2022-09-17T06:46:55.259Z,577.84
2022-09-17T06:47:50.653Z,543.91
2022-09-17T06:48:45.923Z,571.90
2022-09-17T06:49:41.533Z,588.04
2022-09-17T06:50:41.962Z,592.74
2022-09-17T06:51:33.402Z,589.60
2022-09-17T06:52:27.870Z,629.09
2022-09-17T06:53:23.404Z,661.54
2022-09-17T06:54:18.851Z,691.74
2022-09-17T06:55:14.288Z,689.59
2022-09-17T06:56:09.836Z,715.49
2022-09-17T06:57:05.132Z,719.34
2022-09-17T06:58:00.553Z,718.57
2022-09-17T06:58:56.016Z,698.99
2022-09-17T06:59:51.459Z,674.93
2022-09-17T07:00:46.946Z,661.54
2022-09-17T07:01:42.408Z,678.36
2022-09-17T07:02:37.829Z,688.17
2022-09-17T07:03:33.260Z,700.46
2022-09-17T07:04:28.680Z,699.72
2022-09-17T07:05:24.115Z,690.30
2022-09-17T07:06:19.508Z,684.63
2022-09-17T07:07:14.940Z,674.93
2022-09-17T07:08:10.356Z,672.21
2022-09-17T07:09:10.403Z,669.51
2022-09-17T07:10:02.248Z,647.41
2022-09-17T07:10:56.727Z,648.04
2022-09-17T07:11:52.412Z,594.86
2022-09-17T07:12:49.914Z,580.86
2022-09-17T07:13:43.242Z,587.52
2022-09-17T07:14:38.713Z,604.56
2022-09-17T07:15:34.270Z,626.13
2022-09-17T07:16:29.597Z,648.04
2022-09-17T07:17:24.901Z,668.84
2022-09-17T07:18:20.306Z,676.30
2022-09-17T07:19:15.730Z,691.02
2022-09-17T07:20:11.351Z,683.93
2022-09-17T07:21:06.634Z,691.02
2022-09-17T07:22:02.180Z,688.17
2022-09-17T07:22:57.642Z,673.57
2022-09-17T07:23:53.176Z,635.68
2022-09-17T07:24:48.576Z,641.80
2022-09-17T07:25:43.996Z,651.20
2022-09-17T07:26:39.249Z,688.17
2022-09-17T07:27:34.673Z,701.93
2022-09-17T07:28:30.186Z,728.78
2022-09-17T07:29:25.773Z,750.84
2022-09-17T07:30:21.268Z,770.34
2022-09-17T07:31:17.056Z,789.47
2022-09-17T07:32:11.853Z,779.79
2022-09-17T07:33:06.884Z,786.68
2022-09-17T07:34:01.899Z,777.07
2022-09-17T07:34:56.997Z,779.79
2022-09-17T07:35:52.086Z,783.91
2022-09-17T07:36:47.151Z,798.45
2022-09-17T07:37:42.177Z,822.04
2022-09-17T07:38:37.178Z,812.04
2022-09-17T07:39:32.293Z,796.06
2022-09-17T07:40:27.389Z,770.78
2022-09-17T07:41:22.339Z,755.09
2022-09-17T07:42:17.372Z,772.12
2022-09-17T07:43:12.416Z,745.90
2022-09-17T07:44:07.428Z,746.23
2022-09-17T07:45:02.578Z,764.60
2022-09-17T07:46:01.095Z,771.68
2022-09-17T07:46:56.110Z,781.62
2022-09-17T07:47:51.192Z,784.83
2022-09-17T07:48:46.189Z,775.26
2022-09-17T07:49:42.161Z,784.37
2022-09-17T07:50:37.733Z,776.61
2022-09-17T07:51:33.028Z,780.70
2022-09-17T07:52:28.420Z,774.36
2022-09-17T07:53:23.981Z,764.17
2022-09-17T07:54:19.391Z,749.16
2022-09-17T07:55:14.948Z,739.28
2022-09-17T07:56:12.013Z,740.93
2022-09-17T07:57:05.728Z,740.10
2022-09-17T07:58:01.195Z,758.95
2022-09-17T07:58:56.629Z,750.84
2022-09-17T07:59:52.042Z,737.65
2022-09-17T08:00:47.486Z,705.64
2022-09-17T08:01:43.045Z,679.06
2022-09-17T08:02:38.021Z,631.47
2022-09-17T08:03:32.994Z,558.96
2022-09-17T08:04:28.135Z,574.86
2022-09-17T08:05:23.156Z,543.02
2022-09-17T08:06:18.203Z,540.82
2022-09-17T08:07:13.202Z,526.72
2022-09-17T08:08:08.262Z,525.89
2022-09-17T08:09:05.293Z,561.31
2022-09-17T08:10:00.291Z,591.16
2022-09-17T08:10:55.336Z,607.87
2022-09-17T08:11:57.535Z,644.28
2022-09-17T08:12:47.602Z,672.21
2022-09-17T08:13:42.125Z,670.86
2022-09-17T08:14:37.549Z,647.41
2022-09-17T08:15:32.980Z,660.23
2022-09-17T08:16:28.616Z,675.62
2022-09-17T08:17:24.168Z,694.62
2022-09-17T08:18:19.434Z,688.88
2022-09-17T08:19:14.866Z,707.14
2022-09-17T08:20:10.306Z,720.12
2022-09-17T08:21:05.909Z,717.03
2022-09-17T08:22:01.269Z,719.34
2022-09-17T08:22:56.749Z,713.95
2022-09-17T08:23:52.245Z,708.64
2022-09-17T08:24:47.816Z,719.34
2022-09-17T08:25:42.866Z,740.93
2022-09-17T08:26:37.918Z,785.29
2022-09-17T08:27:32.955Z,826.62
2022-09-17T08:28:28.165Z,841.74
2022-09-17T08:29:23.253Z,855.22
2022-09-17T08:30:18.357Z,874.26
2022-09-17T08:31:13.445Z,871.41
2022-09-17T08:32:10.477Z,877.71
2022-09-17T08:33:05.723Z,878.87
2022-09-17T08:34:00.728Z,899.60
2022-09-17T08:34:58.217Z,930.31
2022-09-17T08:35:50.881Z,974.45
2022-09-17T08:36:45.891Z,985.97
2022-09-17T08:37:40.971Z,1035.69
2022-09-17T08:38:38.220Z,1046.24
2022-09-17T08:39:31.331Z,1071.43
2022-09-17T08:40:26.949Z,1088.02
2022-09-17T08:41:22.382Z,1111.57
2022-09-17T08:42:17.793Z,1115.29
2022-09-17T08:43:13.199Z,1134.24
2022-09-17T08:44:08.750Z,1089.80
2022-09-17T08:45:04.261Z,1088.02
2022-09-17T08:45:59.748Z,1095.16
2022-09-17T08:46:55.293Z,1051.18
2022-09-17T08:47:50.778Z,1026.13
2022-09-17T08:48:46.101Z,1028.51
2022-09-17T08:49:41.738Z,1029.30
2022-09-17T08:50:37.070Z,1050.35
2022-09-17T08:51:32.706Z,1030.09
2022-09-17T08:52:28.051Z,993.30
2022-09-17T08:53:23.596Z,965.29
2022-09-17T08:54:18.921Z,934.22
2022-09-17T08:55:18.350Z,915.01
2022-09-17T08:56:13.806Z,846.01
2022-09-17T08:57:09.296Z,808.11
2022-09-17T08:58:04.936Z,793.23
2022-09-17T08:59:00.455Z,768.12
2022-09-17T08:59:55.978Z,749.16
2022-09-17T09:00:51.459Z,740.93
2022-09-17T09:01:47.039Z,739.28
2022-09-17T09:02:42.416Z,718.57
2022-09-17T09:03:37.683Z,703.41
2022-09-17T09:04:33.063Z,704.90
2022-09-17T09:05:28.699Z,698.26
2022-09-17T09:06:24.082Z,677.68
2022-09-17T09:07:19.478Z,618.58
2022-09-17T09:08:15.004Z,539.51
2022-09-17T09:09:10.111Z,478.36
2022-09-17T09:10:05.250Z,458.30
2022-09-17T09:11:00.403Z,497.27
2022-09-17T09:11:55.513Z,536.47
2022-09-17T09:12:50.651Z,571.90
2022-09-17T09:13:45.635Z,581.37
2022-09-17T09:14:40.779Z,588.04
2022-09-17T09:15:35.740Z,573.87
2022-09-17T09:16:30.941Z,565.11
2022-09-17T09:17:26.011Z,573.37
2022-09-17T09:18:24.252Z,588.04
2022-09-17T09:19:19.490Z,557.09
2022-09-17T09:20:14.969Z,554.77
2022-09-17T09:21:10.489Z,539.95
2022-09-17T09:22:05.956Z,551.56
2022-09-17T09:23:01.416Z,552.93
2022-09-17T09:23:56.796Z,558.96
2022-09-17T09:24:52.394Z,564.63
2022-09-17T09:25:48.005Z,565.11
2022-09-17T09:26:43.305Z,564.16
2022-09-17T09:27:38.737Z,568.48
2022-09-17T09:28:34.173Z,562.25
2022-09-17T09:29:29.810Z,551.56
2022-09-17T09:30:25.287Z,540.38
2022-09-17T09:31:20.882Z,534.75
2022-09-17T09:32:16.828Z,543.91
2022-09-17T09:33:10.834Z,531.77
2022-09-17T09:34:05.966Z,535.18
2022-09-17T09:35:00.963Z,541.70
2022-09-17T09:35:56.032Z,558.96
2022-09-17T09:36:51.143Z,563.68
2022-09-17T09:37:46.200Z,577.84
2022-09-17T09:38:41.262Z,568.97
2022-09-17T09:39:41.248Z,568.48
2022-09-17T09:40:32.452Z,570.43
2022-09-17T09:41:28.486Z,568.97
2022-09-17T09:42:23.552Z,580.36
2022-09-17T09:43:18.630Z,600.21
2022-09-17T09:44:13.845Z,606.76
2022-09-17T09:45:08.976Z,611.21
2022-09-17T09:46:04.455Z,563.20
2022-09-17T09:47:00.085Z,542.14
2022-09-17T09:47:55.491Z,539.07
2022-09-17T09:48:50.990Z,529.65
2022-09-17T09:49:46.451Z,530.07
2022-09-17T09:51:04.547Z,539.07
2022-09-17T09:51:38.529Z,552.01
2022-09-17T09:52:32.938Z,557.55
2022-09-17T09:53:28.426Z,562.25
2022-09-17T09:54:24.033Z,567.52
2022-09-17T09:55:21.353Z,561.78
2022-09-17T09:56:15.838Z,566.07
2022-09-17T09:57:10.348Z,552.93
2022-09-17T09:58:05.353Z,551.10
2022-09-17T09:59:00.427Z,535.18
2022-09-17T09:59:55.406Z,530.50
2022-09-17T10:00:50.425Z,520.96
2022-09-17T10:01:45.611Z,495.42
2022-09-17T10:02:40.576Z,491.04
2022-09-17T10:03:35.650Z,495.42
2022-09-17T10:04:32.710Z,496.16
2022-09-17T10:05:27.725Z,498.75
2022-09-17T10:06:22.785Z,499.50
2022-09-17T10:07:17.873Z,509.81
2022-09-17T10:08:12.912Z,502.51
2022-09-17T10:09:08.008Z,482.86
2022-09-17T10:10:03.133Z,487.10
2022-09-17T10:10:58.255Z,506.33
2022-09-17T10:11:54.066Z,520.96
2022-09-17T10:12:49.569Z,537.34
2022-09-17T10:13:45.034Z,550.19
2022-09-17T10:14:40.532Z,558.02
2022-09-17T10:15:35.880Z,568.48
2022-09-17T10:16:31.004Z,544.80
2022-09-17T10:17:26.046Z,528.39
2022-09-17T10:18:21.070Z,526.72
2022-09-17T10:19:16.098Z,533.47
2022-09-17T10:20:11.354Z,535.18
2022-09-17T10:21:06.280Z,530.92
2022-09-17T10:22:01.303Z,530.07
2022-09-17T10:22:56.345Z,523.01
2022-09-17T10:23:51.351Z,528.81
2022-09-17T10:24:46.386Z,533.47
2022-09-17T10:25:41.428Z,528.81
2022-09-17T10:26:36.851Z,521.37
2022-09-17T10:27:32.235Z,525.89
2022-09-17T10:28:27.545Z,542.14
2022-09-17T10:29:23.039Z,484.27
2022-09-17T10:30:18.595Z,450.26
2022-09-17T10:31:13.689Z,449.65
2022-09-17T10:32:08.707Z,470.60
2022-09-17T10:33:03.695Z,502.89
2022-09-17T10:33:58.824Z,535.61
2022-09-17T10:34:53.834Z,569.46
2022-09-17T10:35:48.933Z,588.04
2022-09-17T10:36:44.045Z,605.11
2022-09-17T10:37:39.297Z,593.27
2022-09-17T10:38:34.142Z,590.12
2022-09-17T10:39:29.169Z,604.02
2022-09-17T10:40:24.387Z,630.87
2022-09-17T10:41:19.370Z,662.20
2022-09-17T10:42:14.365Z,693.90
2022-09-17T10:43:09.481Z,720.12
2022-09-17T10:44:06.654Z,743.40
2022-09-17T10:45:02.225Z,744.23
2022-09-17T10:45:57.597Z,778.43
2022-09-17T10:46:53.114Z,814.52
2022-09-17T10:47:48.421Z,803.25
2022-09-17T10:48:43.830Z,786.22
2022-09-17T10:49:39.393Z,826.11
2022-09-17T10:50:34.800Z,865.20
2022-09-17T10:51:30.172Z,911.89
2022-09-17T10:52:25.840Z,932.91
2022-09-17T10:53:21.226Z,927.08
2022-09-17T10:54:16.954Z,922.60
2022-09-17T10:55:12.266Z,940.14
2022-09-17T10:56:07.779Z,947.48
2022-09-17T10:57:03.317Z,977.31
2022-09-17T10:57:58.316Z,798.45
2022-09-17T10:58:53.433Z,672.89
2022-09-17T10:59:48.438Z,672.89
2022-09-17T11:00:43.722Z,753.39
2022-09-17T11:01:38.828Z,839.09
2022-09-17T11:02:33.801Z,888.22
2022-09-17T11:03:28.699Z,887.63
2022-09-17T11:04:23.740Z,891.78
2022-09-17T11:05:18.777Z,918.16
2022-09-17T11:06:14.725Z,933.57
2022-09-17T11:07:10.354Z,959.74
2022-09-17T11:08:05.401Z,944.13
2022-09-17T11:09:00.437Z,978.02
2022-09-17T11:09:55.551Z,933.57
2022-09-17T11:10:51.602Z,942.80
2022-09-17T11:11:47.084Z,921.33
2022-09-17T11:12:42.572Z,884.69
2022-09-17T11:13:38.052Z,852.49
2022-09-17T11:14:33.670Z,827.65
2022-09-17T11:15:29.150Z,817.01
2022-09-17T11:16:24.554Z,799.88
2022-09-17T11:17:20.024Z,796.54
2022-09-17T11:18:15.433Z,793.23
2022-09-17T11:19:10.900Z,796.54
2022-09-17T11:20:06.379Z,688.88
2022-09-17T11:21:01.871Z,611.77
2022-09-17T11:21:59.420Z,635.68
2022-09-17T11:22:54.709Z,620.31
2022-09-17T11:23:49.844Z,587.00
2022-09-17T11:24:44.842Z,531.77
2022-09-17T11:25:39.842Z,545.69
2022-09-17T11:26:34.875Z,569.46
2022-09-17T11:27:29.852Z,572.88
2022-09-17T11:28:24.848Z,585.97
2022-09-17T11:29:19.922Z,592.21
2022-09-17T11:30:15.788Z,624.96
2022-09-17T11:31:10.982Z,616.30
2022-09-17T11:32:05.846Z,588.04